Time;durP1;ratioP1;P1;durP2;ratioP2;P2;SDS_P1;SDS_P2;PMS_P1;PMS_P2;Temp;Humidity;BMP_temperature;BMP_pressure;BME280_temperature;BME280_humidity;BME280_pressure;Samples;Min_cycle;Max_cycle;Signal;HPM_P1;HPM_P2
2023/07/17 00:04:04;;;;;;;4.78;1.70;;;;;;;23.15;42.45;101547.00;16122685;19;131691;-45
2023/07/17 00:09:26;;;;;;;7.25;2.05;;;;;;;23.16;42.47;101533.88;16115503;19;129747;-49
2023/07/17 00:14:48;;;;;;;3.30;1.77;;;;;;;23.16;42.19;101542.25;16122693;19;130962;-46
2023/07/17 00:20:11;;;;;;;2.13;1.33;;;;;;;23.14;42.43;101538.91;16121031;19;130142;-47
2023/07/17 00:25:34;;;;;;;4.28;1.67;;;;;;;23.14;42.19;101538.91;16122550;19;130622;-46
2023/07/17 00:30:56;;;;;;;2.22;1.48;;;;;;;23.13;42.56;101531.63;16123285;19;130140;-49
2023/07/17 00:36:18;;;;;;;2.95;1.42;;;;;;;23.12;42.19;101527.97;16120259;19;130358;-44
2023/07/17 00:41:40;;;;;;;2.38;1.30;;;;;;;23.12;42.20;101541.09;16125767;19;130564;-49
2023/07/17 00:47:03;;;;;;;2.05;1.13;;;;;;;23.11;42.50;101542.19;16124319;19;130693;-45
2023/07/17 00:52:27;;;;;;;2.40;1.50;;;;;;;23.11;42.36;101539.41;16121177;19;129763;-47
2023/07/17 00:57:50;;;;;;;2.88;1.30;;;;;;;23.10;42.38;101532.13;16113112;19;130332;-43
2023/07/17 01:03:14;;;;;;;2.20;1.27;;;;;;;23.09;42.26;101522.09;16114149;19;130327;-46
2023/07/17 01:08:36;;;;;;;3.30;1.35;;;;;;;23.09;42.03;101533.25;16113325;19;129692;-48
2023/07/17 01:13:59;;;;;;;2.60;1.40;;;;;;;23.08;42.32;101542.72;16115571;19;129947;-45
2023/07/17 01:19:21;;;;;;;2.38;1.20;;;;;;;23.06;42.36;101540.19;16111000;19;131281;-45
2023/07/17 01:24:43;;;;;;;2.08;1.23;;;;;;;23.07;42.17;101557.78;16113164;19;129508;-47
2023/07/17 01:30:06;;;;;;;2.38;1.40;;;;;;;23.05;42.61;101556.09;16108237;19;130861;-45
2023/07/17 01:35:27;;;;;;;2.58;1.20;;;;;;;23.04;42.33;101557.19;16110420;19;129705;-47
2023/07/17 01:40:51;;;;;;;2.25;1.30;;;;;;;23.04;42.13;101557.19;16112587;19;129635;-48
2023/07/17 01:46:13;;;;;;;1.70;1.20;;;;;;;23.04;42.40;101557.19;16109096;19;132439;-45
2023/07/17 01:51:34;;;;;;;1.27;1.00;;;;;;;23.03;42.51;101554.66;16113758;19;130796;-50
2023/07/17 01:56:56;;;;;;;2.20;1.27;;;;;;;23.02;42.38;101564.97;16114314;19;130947;-45
2023/07/17 02:02:18;;;;;;;2.83;1.45;;;;;;;23.02;42.46;101570.56;16112718;19;130639;-46
2023/07/17 02:07:40;;;;;;;1.83;1.05;;;;;;;23.02;42.54;101566.94;16110739;19;130107;-46
2023/07/17 02:13:02;;;;;;;2.97;1.27;;;;;;;23.00;42.47;101564.41;16105251;19;132182;-46
2023/07/17 02:18:24;;;;;;;1.73;1.15;;;;;;;23.00;42.40;101569.13;16106794;19;130440;-43
2023/07/17 02:23:46;;;;;;;1.75;0.90;;;;;;;22.98;42.50;101569.41;16110818;19;129405;-45
2023/07/17 02:29:09;;;;;;;1.48;0.73;;;;;;;22.98;42.44;101571.34;16106913;19;129914;-48
2023/07/17 02:34:31;;;;;;;1.13;1.00;;;;;;;22.99;42.44;101579.47;16107477;19;130122;-46
2023/07/17 02:39:53;;;;;;;0.93;0.80;;;;;;;22.98;42.38;101580.56;16106636;19;131289;-48
2023/07/17 02:45:15;;;;;;;1.75;1.02;;;;;;;22.98;42.31;101582.50;16103934;19;131636;-49
2023/07/17 02:50:37;;;;;;;3.55;1.10;;;;;;;22.97;42.29;101590.03;16111962;19;132719;-48
2023/07/17 02:55:59;;;;;;;1.92;1.10;;;;;;;22.96;42.32;101599.50;16108178;19;130521;-47
2023/07/17 03:01:21;;;;;;;1.42;0.93;;;;;;;22.97;42.48;101603.13;16104681;19;130683;-46
2023/07/17 03:06:43;;;;;;;1.80;1.00;;;;;;;22.94;42.39;101601.72;16107724;19;130612;-48
2023/07/17 03:12:06;;;;;;;1.25;0.90;;;;;;;22.94;42.34;101601.72;16103498;19;129268;-46
2023/07/17 03:17:28;;;;;;;2.85;1.08;;;;;;;22.93;42.34;101613.97;16110254;19;131915;-48
2023/07/17 03:22:50;;;;;;;0.95;0.70;;;;;;;22.92;42.21;101609.50;16107325;19;129561;-49
2023/07/17 03:28:12;;;;;;;1.05;0.80;;;;;;;22.92;42.19;101608.66;16108297;19;131312;-45
2023/07/17 03:33:34;;;;;;;1.23;0.70;;;;;;;22.91;42.21;101613.38;16123394;19;130289;-48
2023/07/17 03:38:57;;;;;;;1.40;0.80;;;;;;;22.89;42.39;101610.00;16117367;19;130297;-49
2023/07/17 03:44:19;;;;;;;2.08;1.15;;;;;;;22.89;42.11;101616.41;16118648;19;130795;-46
2023/07/17 03:49:41;;;;;;;1.10;0.70;;;;;;;22.89;42.59;101607.22;16119956;19;130375;-48
2023/07/17 03:55:03;;;;;;;1.30;0.80;;;;;;;22.87;42.30;101621.41;16119336;19;129601;-50
2023/07/17 04:00:25;;;;;;;2.97;0.88;;;;;;;22.88;42.42;101631.47;16115932;19;131382;-46
2023/07/17 04:05:47;;;;;;;3.35;1.13;;;;;;;22.87;42.33;101621.41;16117695;19;129896;-44
2023/07/17 04:11:09;;;;;;;1.05;0.88;;;;;;;22.86;42.30;101633.66;16113822;19;129964;-48
2023/07/17 04:16:31;;;;;;;2.13;0.93;;;;;;;22.85;42.23;101634.75;16119041;19;131861;-44
2023/07/17 04:21:53;;;;;;;1.48;0.80;;;;;;;22.85;42.02;101636.72;16115719;19;129816;-48
2023/07/17 04:27:15;;;;;;;1.52;0.95;;;;;;;22.84;42.12;101646.19;16113294;19;131069;-44
2023/07/17 04:32:37;;;;;;;1.08;0.80;;;;;;;22.84;42.16;101637.81;16110572;19;133300;-46
2023/07/17 04:37:59;;;;;;;1.20;0.80;;;;;;;22.84;42.31;101643.41;16116196;19;131603;-45
2023/07/17 04:43:22;;;;;;;1.38;0.95;;;;;;;22.83;41.91;101650.09;16114061;19;130053;-46
2023/07/17 04:48:44;;;;;;;1.45;0.80;;;;;;;22.82;42.24;101642.81;16110640;19;131214;-48
2023/07/17 04:54:06;;;;;;;1.23;0.80;;;;;;;22.81;42.37;101649.50;16110318;19;129687;-47
2023/07/17 04:59:28;;;;;;;0.70;0.70;;;;;;;22.82;42.34;101659.56;16109383;19;129925;-46
2023/07/17 05:04:50;;;;;;;0.98;0.75;;;;;;;22.81;42.30;101664.31;16109598;19;130276;-48
2023/07/17 05:10:14;;;;;;;1.40;0.77;;;;;;;22.80;42.12;101675.69;16110130;19;132762;-46
2023/07/17 05:15:36;;;;;;;0.80;0.70;;;;;;;22.81;42.23;101685.75;16109479;19;129648;-50
2023/07/17 05:20:58;;;;;;;1.73;0.77;;;;;;;22.81;42.08;101688.53;16113370;19;130900;-48
2023/07/17 05:26:20;;;;;;;1.35;0.57;;;;;;;22.80;42.08;101684.94;16111252;19;130715;-46
2023/07/17 05:31:43;;;;;;;5.45;0.82;;;;;;;22.79;42.27;101688.81;16117936;19;130097;-44
2023/07/17 05:37:05;;;;;;;1.80;0.98;;;;;;;22.80;41.86;101698.00;16110139;19;129839;-46
2023/07/17 05:42:27;;;;;;;2.55;1.08;;;;;;;22.81;42.13;101699.69;16112206;19;129560;-46
2023/07/17 05:47:49;;;;;;;2.10;1.10;;;;;;;22.82;42.06;101698.59;16113691;19;129512;-46
2023/07/17 05:53:11;;;;;;;2.83;0.88;;;;;;;22.80;42.24;101707.25;16108027;19;130067;-43
2023/07/17 05:58:33;;;;;;;6.22;1.08;;;;;;;22.81;42.10;101710.88;16114801;19;130544;-49
2023/07/17 06:03:55;;;;;;;2.92;0.88;;;;;;;22.82;42.06;101715.34;16111198;19;129677;-46
2023/07/17 06:09:17;;;;;;;3.50;1.23;;;;;;;22.82;41.90;101715.34;16111945;19;133086;-49
2023/07/17 06:14:39;;;;;;;7.40;1.40;;;;;;;22.81;41.71;101722.88;16111162;19;129707;-48
2023/07/17 06:20:01;;;;;;;4.18;1.67;;;;;;;22.84;42.31;101732.69;16107466;19;131995;-49
2023/07/17 06:25:23;;;;;;;3.03;1.33;;;;;;;22.86;41.68;101736.91;16108526;19;129620;-48
2023/07/17 06:30:46;;;;;;;3.03;1.30;;;;;;;22.88;41.76;101736.66;16106649;19;130158;-52
2023/07/17 06:36:08;;;;;;;6.85;1.70;;;;;;;22.92;41.82;101746.22;16103682;19;129475;-49
2023/07/17 06:41:30;;;;;;;7.50;1.75;;;;;;;23.08;41.36;101757.63;16104386;19;130577;-53
2023/07/17 06:46:52;;;;;;;4.20;1.83;;;;;;;23.18;41.57;101760.53;16106127;19;131037;-46
2023/07/17 06:52:14;;;;;;;11.95;2.70;;;;;;;23.17;41.09;101767.22;16107390;19;130687;-48
2023/07/17 06:57:36;;;;;;;3.47;2.05;;;;;;;23.27;41.05;101767.38;16101128;19;131096;-50
2023/07/17 07:02:58;;;;;;;10.52;2.60;;;;;;;23.39;40.19;101774.78;16106686;19;131259;-46
2023/07/17 07:08:22;;;;;;;4.20;2.30;;;;;;;23.44;40.07;101766.47;16106593;19;129960;-52
2023/07/17 07:13:44;;;;;;;11.50;3.53;;;;;;;23.55;40.64;101768.31;16101435;19;129934;-50
2023/07/17 07:19:07;;;;;;;8.32;3.15;;;;;;;23.52;40.60;101774.41;16102243;19;131123;-51
2023/07/17 07:24:30;;;;;;;13.05;3.38;;;;;;;23.63;40.09;101776.25;16105722;19;131259;-50
2023/07/17 07:29:52;;;;;;;10.23;3.45;;;;;;;23.71;40.07;101786.13;16105512;19;131280;-49
2023/07/17 07:35:14;;;;;;;8.82;2.85;;;;;;;23.71;39.93;101788.09;16105654;19;129619;-51
2023/07/17 07:40:36;;;;;;;8.30;2.85;;;;;;;23.71;39.53;101788.09;16106014;19;129537;-53
2023/07/17 07:45:58;;;;;;;8.35;3.55;;;;;;;23.74;39.94;101791.19;16105008;19;131175;-48
2023/07/17 07:51:20;;;;;;;8.98;3.22;;;;;;;23.73;39.86;101792.28;16106069;19;130385;-52
2023/07/17 07:56:45;;;;;;;12.18;3.63;;;;;;;23.72;39.74;101799.00;16106882;19;130161;-50
2023/07/17 08:02:10;;;;;;;7.82;3.55;;;;;;;23.69;39.80;101804.25;16104579;19;130325;-53
2023/07/17 08:07:32;;;;;;;8.98;3.30;;;;;;;23.75;39.64;101801.28;16106776;19;129843;-51
2023/07/17 08:12:54;;;;;;;9.82;3.80;;;;;;;23.74;39.77;101815.50;16095990;19;130687;-53
2023/07/17 08:18:16;;;;;;;10.45;3.15;;;;;;;23.67;39.80;101810.13;16112833;19;129906;-50
2023/07/17 08:23:38;;;;;;;8.98;3.20;;;;;;;23.59;40.02;101819.78;16114058;19;131636;-51
2023/07/17 08:29:03;;;;;;;7.68;3.15;;;;;;;23.60;39.80;101815.91;16114849;19;129431;-52
2023/07/17 08:34:25;;;;;;;5.53;2.97;;;;;;;23.59;39.94;101818.94;16118248;19;129608;-47
2023/07/17 08:39:47;;;;;;;11.77;3.25;;;;;;;23.61;39.83;101816.72;16118957;19;129742;-50
2023/07/17 08:45:10;;;;;;;7.43;3.50;;;;;;;23.57;39.78;101819.16;16112986;19;130632;-52
2023/07/17 08:50:35;;;;;;;15.40;3.92;;;;;;;23.63;39.66;101815.34;16118101;19;130075;-51
2023/07/17 08:55:57;;;;;;;;;;;;;;;23.55;39.97;101823.34;16121114;19;132654;-51
2023/07/17 09:01:19;;;;;;;8.40;3.92;;;;;;;23.54;39.94;101828.06;16117622;19;131532;-50
2023/07/17 09:06:41;;;;;;;11.88;3.97;;;;;;;23.58;39.86;101818.09;16112273;19;129743;-48
2023/07/17 09:12:11;;;;;;;20.40;4.05;;;;;;;23.55;39.71;101820.53;16119472;19;131942;-49
2023/07/17 09:17:33;;;;;;;20.20;3.72;;;;;;;23.50;40.12;101821.31;16119972;19;129396;-55
2023/07/17 09:22:59;;;;;;;10.65;3.85;;;;;;;23.46;39.52;101814.53;16121781;19;131292;-55
2023/07/17 09:28:21;;;;;;;11.45;3.50;;;;;;;23.40;39.01;101827.59;16122058;19;129432;-55
2023/07/17 09:33:43;;;;;;;9.10;3.97;;;;;;;23.35;38.91;101831.16;16119872;19;129389;-54
2023/07/17 09:39:05;;;;;;;16.08;3.75;;;;;;;23.33;39.23;101824.97;16119729;19;131131;-52
2023/07/17 09:44:30;;;;;;;17.02;3.65;;;;;;;23.33;39.40;101827.78;16120565;19;129792;-53
2023/07/17 09:49:54;;;;;;;10.43;3.80;;;;;;;23.35;39.42;101830.31;16119815;19;129701;-53
2023/07/17 09:55:19;;;;;;;11.07;3.72;;;;;;;23.42;39.06;101830.13;16116213;19;130247;-50
2023/07/17 10:00:42;;;;;;;15.73;3.92;;;;;;;23.45;39.53;101824.03;16116841;19;129567;-52
2023/07/17 10:06:04;;;;;;;7.93;3.28;;;;;;;23.47;39.33;101816.25;16114666;19;129632;-51
2023/07/17 10:11:26;;;;;;;11.98;3.97;;;;;;;23.47;39.31;101827.41;16114282;19;130279;-49
2023/07/17 10:16:51;;;;;;;13.65;4.07;;;;;;;23.50;39.08;101821.31;16113180;19;129501;-48
2023/07/17 10:22:14;;;;;;;5.88;3.42;;;;;;;23.53;39.10;101814.34;16113010;19;130111;-51
2023/07/17 10:27:40;;;;;;;9.73;3.60;;;;;;;23.55;39.09;101818.56;16109593;19;130225;-48
2023/07/17 10:33:19;;;;;;;7.80;3.30;;;;;;;23.58;38.84;101822.78;16111793;19;130182;-49
2023/07/17 10:38:42;;;;;;;10.95;4.72;;;;;;;23.55;38.63;101824.16;16110123;19;129943;-49
2023/07/17 10:44:06;;;;;;;7.72;4.20;;;;;;;23.55;38.67;101829.75;16109297;19;129695;-50
2023/07/17 10:49:43;;;;;;;8.15;3.78;;;;;;;23.54;38.86;101828.06;16103345;19;131203;-52
2023/07/17 10:55:06;;;;;;;5.55;3.40;;;;;;;23.57;38.61;101830.34;16108954;19;129982;-48
2023/07/17 11:00:28;;;;;;;12.48;3.95;;;;;;;23.55;38.56;101840.91;16109624;19;130906;-51
2023/07/17 11:05:53;;;;;;;9.85;4.15;;;;;;;23.57;38.53;101843.47;16110318;19;129683;-49
2023/07/17 11:11:16;;;;;;;11.75;4.05;;;;;;;23.55;38.25;101840.91;16111469;19;130966;-49
2023/07/17 11:16:40;;;;;;;10.68;3.70;;;;;;;23.54;38.14;101830.84;16110267;19;129787;-52
2023/07/17 11:22:02;;;;;;;8.57;3.78;;;;;;;23.55;38.25;101831.72;16110207;19;130031;-46
2023/07/17 11:27:24;;;;;;;6.68;3.25;;;;;;;23.54;38.07;101836.44;16103976;19;131707;-42
2023/07/17 11:33:02;;;;;;;6.72;3.35;;;;;;;23.56;38.19;101836.19;16100916;19;133356;-48
2023/07/17 11:38:24;;;;;;;7.28;3.88;;;;;;;23.54;38.09;101821.63;16102613;19;130147;-49
2023/07/17 11:43:56;;;;;;;6.28;3.60;;;;;;;23.60;38.10;101826.22;16100946;19;130881;-44
2023/07/17 11:49:18;;;;;;;9.10;3.83;;;;;;;23.61;38.32;101831.56;16108298;19;130237;-47
2023/07/17 11:54:41;;;;;;;12.68;3.40;;;;;;;23.64;37.83;101814.25;16121662;19;131300;-49
2023/07/17 12:00:04;;;;;;;7.68;3.50;;;;;;;23.66;38.06;101809.25;16117724;19;130517;-48
2023/07/17 12:05:26;;;;;;;9.07;3.78;;;;;;;23.71;38.22;101813.22;16122533;19;129735;-47
2023/07/17 12:10:49;;;;;;;11.02;3.97;;;;;;;23.72;38.07;101817.72;16119899;19;129684;-48
2023/07/17 12:16:11;;;;;;;9.68;3.75;;;;;;;23.75;38.28;101820.00;16116975;19;130319;-46
2023/07/17 12:21:33;;;;;;;9.10;3.70;;;;;;;23.78;37.95;101827.84;16116106;19;130379;-51
2023/07/17 12:27:02;;;;;;;8.88;3.60;;;;;;;23.74;38.37;101826.69;16108179;19;129783;-46
2023/07/17 12:32:24;;;;;;;8.35;4.00;;;;;;;23.69;37.98;101829.41;16116082;19;129558;-51
2023/07/17 12:37:46;;;;;;;8.95;3.83;;;;;;;23.64;38.10;101828.22;16119784;19;129622;-47
2023/07/17 12:43:08;;;;;;;6.43;3.60;;;;;;;23.61;38.19;101828.75;16118907;19;130738;-51
2023/07/17 12:48:30;;;;;;;9.05;3.97;;;;;;;23.58;38.20;101806.03;16117684;19;130235;-49
2023/07/17 12:53:52;;;;;;;7.85;4.18;;;;;;;23.58;38.13;101815.31;16119386;19;133380;-47
2023/07/17 12:59:14;;;;;;;5.82;3.42;;;;;;;23.57;37.72;101805.19;16114370;19;130350;-49
2023/07/17 13:04:36;;;;;;;7.47;3.63;;;;;;;23.57;37.93;101791.22;16115469;19;129458;-45
2023/07/17 13:09:58;;;;;;;6.47;3.30;;;;;;;23.58;37.92;101794.84;16116927;19;130460;-47
2023/07/17 13:15:22;;;;;;;8.32;3.30;;;;;;;23.57;37.57;101794.03;16106753;19;130925;-48
2023/07/17 13:20:45;;;;;;;5.32;3.42;;;;;;;23.56;37.72;101786.75;16115307;19;131487;-52
2023/07/17 13:26:06;;;;;;;8.25;3.15;;;;;;;23.54;38.25;101786.16;16113604;19;129686;-48
2023/07/17 13:31:28;;;;;;;4.88;3.03;;;;;;;23.51;37.94;101789.47;16111529;19;129541;-50
2023/07/17 13:36:51;;;;;;;5.68;3.08;;;;;;;23.50;38.05;101804.56;16116715;19;130274;-49
2023/07/17 13:42:13;;;;;;;5.22;3.00;;;;;;;23.47;38.19;101852.53;16119376;19;131625;-48
2023/07/17 13:47:34;;;;;;;15.05;3.50;;;;;;;23.45;38.34;101877.91;16116084;19;129603;-50
2023/07/17 13:52:58;;;;;;;22.10;3.85;;;;;;;23.43;38.54;101876.50;16118067;19;129764;-51
2023/07/17 13:58:20;;;;;;;29.63;4.45;;;;;;;23.40;38.88;101882.56;16115031;19;129856;-53
2023/07/17 14:03:44;;;;;;;12.57;4.07;;;;;;;23.38;38.91;101893.19;16115274;19;130720;-52
2023/07/17 14:09:06;;;;;;;25.75;3.63;;;;;;;23.39;38.70;101903.22;16114797;19;131124;-55
2023/07/17 14:14:29;;;;;;;20.20;4.05;;;;;;;23.42;39.21;101908.31;16112748;19;129720;-52
2023/07/17 14:19:51;;;;;;;9.02;3.20;;;;;;;23.47;39.36;101909.22;16116816;19;130459;-52
2023/07/17 14:25:16;;;;;;;11.45;3.15;;;;;;;23.53;39.27;101915.75;16117301;19;130235;-54
2023/07/17 14:30:38;;;;;;;10.77;3.20;;;;;;;23.61;39.43;101914.50;16116253;19;129676;-53
2023/07/17 14:35:59;;;;;;;12.85;3.38;;;;;;;23.66;39.72;101903.41;16113983;19;129844;-50
2023/07/17 14:41:21;;;;;;;11.88;3.47;;;;;;;23.71;39.43;101897.03;16111621;19;130212;-51
2023/07/17 14:46:43;;;;;;;9.07;3.00;;;;;;;23.76;39.54;101891.50;16114387;19;129437;-49
2023/07/17 14:52:07;;;;;;;8.75;2.88;;;;;;;23.77;39.79;101884.81;16114786;19;129473;-48
2023/07/17 14:57:28;;;;;;;8.00;2.95;;;;;;;23.79;39.72;101896.59;16106922;19;130541;-51
2023/07/17 15:02:50;;;;;;;8.82;3.00;;;;;;;23.79;39.76;101913.34;16113374;19;130391;-57
2023/07/17 15:08:12;;;;;;;7.82;2.88;;;;;;;23.75;39.98;101907.44;16111519;19;131989;-46
2023/07/17 15:13:36;;;;;;;9.77;3.05;;;;;;;23.75;40.08;101898.22;16113963;19;129845;-49
2023/07/17 15:18:58;;;;;;;5.75;2.78;;;;;;;23.76;40.07;101892.38;16112916;19;130011;-49
2023/07/17 15:24:20;;;;;;;9.45;3.15;;;;;;;23.79;40.37;101894.66;16114454;19;130328;-46
2023/07/17 15:29:42;;;;;;;8.32;2.67;;;;;;;23.81;40.02;101895.25;16126783;19;130636;-47
2023/07/17 15:35:05;;;;;;;12.77;3.25;;;;;;;23.80;39.89;101887.97;16113824;19;130880;-47
2023/07/17 15:40:29;;;;;;;14.07;3.28;;;;;;;23.86;40.66;101900.06;16126398;19;129652;-50
2023/07/17 15:45:51;;;;;;;15.15;3.50;;;;;;;23.91;40.57;101916.88;16125407;19;130266;-50
2023/07/17 15:51:14;;;;;;;15.85;3.60;;;;;;;23.94;40.55;101915.50;16127399;19;130131;-45
2023/07/17 15:56:36;;;;;;;15.95;3.05;;;;;;;23.97;40.69;101921.44;16124185;19;130599;-47
2023/07/17 16:01:58;;;;;;;17.48;3.70;;;;;;;24.00;41.01;101919.25;16121573;19;129986;-48
2023/07/17 16:07:20;;;;;;;15.63;3.10;;;;;;;23.99;40.93;101912.78;16124844;19;131725;-47
2023/07/17 16:12:42;;;;;;;25.50;3.83;;;;;;;23.96;40.97;101900.19;16118345;19;130263;-48
2023/07/17 16:18:04;;;;;;;12.98;3.50;;;;;;;23.97;41.08;101909.41;16123032;19;130265;-47
2023/07/17 16:23:26;;;;;;;12.65;3.47;;;;;;;23.94;41.22;101916.38;16122584;19;130769;-47
2023/07/17 16:28:48;;;;;;;18.02;3.10;;;;;;;23.93;41.22;101911.03;16120803;19;130405;-45
2023/07/17 16:34:10;;;;;;;16.52;3.30;;;;;;;23.92;41.37;101917.75;16119854;19;130757;-46
2023/07/17 16:39:32;;;;;;;10.40;3.70;;;;;;;23.92;41.69;101907.38;16117932;19;133560;-47
2023/07/17 16:44:54;;;;;;;12.25;4.07;;;;;;;23.90;41.61;101898.41;16118133;19;130310;-50
2023/07/17 16:50:16;;;;;;;16.27;3.53;;;;;;;23.91;41.57;101905.69;16118723;19;129900;-46
2023/07/17 16:55:38;;;;;;;10.90;3.13;;;;;;;23.91;41.78;101900.09;16121486;19;130875;-47
2023/07/17 17:01:00;;;;;;;9.57;3.88;;;;;;;23.93;41.69;101908.25;16120037;19;129341;-49
2023/07/17 17:06:22;;;;;;;12.98;3.63;;;;;;;23.93;41.85;101900.69;16120949;19;129899;-45
2023/07/17 17:11:46;;;;;;;14.25;3.08;;;;;;;23.94;41.65;101899.59;16116298;19;130266;-50
2023/07/17 17:17:08;;;;;;;17.30;2.75;;;;;;;23.96;42.11;101902.97;16114610;19;129557;-51
2023/07/17 17:22:30;;;;;;;11.52;3.05;;;;;;;23.97;42.25;101901.88;16116215;19;129582;-50
2023/07/17 17:27:54;;;;;;;20.83;3.55;;;;;;;23.99;42.18;101906.38;16113395;19;133658;-50
2023/07/17 17:33:18;;;;;;;14.57;3.22;;;;;;;24.00;42.35;101905.25;16117621;19;129713;-52
2023/07/17 17:38:40;;;;;;;17.25;3.05;;;;;;;24.00;42.25;101903.31;16118101;19;130588;-45
2023/07/17 17:44:02;;;;;;;21.05;3.58;;;;;;;24.00;42.46;101916.44;16112079;19;130795;-48
2023/07/17 17:49:24;;;;;;;17.00;2.83;;;;;;;23.98;42.15;101905.50;16111813;19;129810;-49
2023/07/17 17:54:46;;;;;;;15.57;2.97;;;;;;;23.96;42.26;101914.16;16112864;19;131100;-50
2023/07/17 18:00:09;;;;;;;18.85;3.30;;;;;;;23.94;42.25;101916.38;16110228;19;130276;-51
2023/07/17 18:05:31;;;;;;;17.23;3.58;;;;;;;23.92;42.72;101926.94;16105366;19;131428;-53
2023/07/17 18:10:53;;;;;;;16.02;3.35;;;;;;;23.90;42.56;101917.97;16102636;19;130525;-47
2023/07/17 18:16:15;;;;;;;22.23;3.35;;;;;;;23.83;42.93;101931.31;16101584;19;130750;-49
2023/07/17 18:21:38;;;;;;;28.55;3.28;;;;;;;23.87;42.74;101926.91;16113763;19;132892;-51
2023/07/17 18:27:04;;;;;;;21.77;3.60;;;;;;;23.93;43.25;101931.44;16116435;19;131194;-48
2023/07/17 18:32:27;;;;;;;13.40;3.13;;;;;;;23.96;43.05;101933.72;16114355;19;129549;-45
2023/07/17 18:37:48;;;;;;;23.38;3.70;;;;;;;23.99;42.98;101939.91;16115046;19;129803;-45
2023/07/17 18:43:10;;;;;;;11.85;3.28;;;;;;;24.01;43.14;101951.66;16114364;19;130955;-45
2023/07/17 18:48:32;;;;;;;13.13;2.60;;;;;;;24.02;43.19;101962.59;16107751;19;131048;-48
2023/07/17 18:53:55;;;;;;;9.60;1.95;;;;;;;24.01;43.11;101966.50;16108677;19;130446;-49
2023/07/17 18:59:18;;;;;;;12.52;2.58;;;;;;;23.97;43.05;101968.97;16110607;19;129425;-45
2023/07/17 19:04:40;;;;;;;24.05;2.92;;;;;;;23.96;42.89;101978.44;16109283;19;129777;-47
2023/07/17 19:10:03;;;;;;;15.15;2.67;;;;;;;23.96;42.88;101986.81;16105208;19;129722;-47
2023/07/17 19:15:25;;;;;;;17.92;3.30;;;;;;;23.94;42.58;101977.84;16104066;19;130079;-45
2023/07/17 19:20:47;;;;;;;12.85;2.60;;;;;;;23.92;42.72;101988.44;16110403;19;130524;-44
2023/07/17 19:26:09;;;;;;;12.55;2.85;;;;;;;23.92;43.07;101996.81;16105338;19;131301;-46
2023/07/17 19:31:31;;;;;;;11.32;2.85;;;;;;;23.92;42.73;101994.03;16107872;19;129447;-45
2023/07/17 19:36:54;;;;;;;15.88;3.13;;;;;;;23.92;42.86;102004.38;16109296;19;129453;-46
2023/07/17 19:42:17;;;;;;;10.02;2.25;;;;;;;23.93;42.97;102003.28;16110322;19;129594;-42
2023/07/17 19:47:39;;;;;;;13.35;2.85;;;;;;;23.93;42.70;102020.88;16103754;19;130280;-49
2023/07/17 19:53:04;;;;;;;7.40;2.20;;;;;;;23.91;42.75;102011.91;16103913;19;129128;-46
2023/07/17 19:58:29;;;;;;;9.37;2.43;;;;;;;23.92;42.94;102021.13;16103805;19;129913;-44
2023/07/17 20:03:51;;;;;;;11.80;2.20;;;;;;;23.92;42.87;102030.34;16104998;19;129964;-47
2023/07/17 20:09:13;;;;;;;6.88;2.30;;;;;;;23.92;42.78;102030.34;16104072;19;129995;-45
2023/07/17 20:14:35;;;;;;;7.25;2.53;;;;;;;23.91;43.02;102039.84;16120720;19;129895;-43
2023/07/17 20:19:58;;;;;;;19.83;2.58;;;;;;;23.90;42.91;102032.56;16124498;19;134877;-45
2023/07/17 20:25:20;;;;;;;7.18;2.42;;;;;;;23.86;42.83;102034.19;16109963;19;130133;-43
2023/07/17 20:30:42;;;;;;;13.55;2.20;;;;;;;23.80;43.06;102043.56;16112618;19;131062;-46
2023/07/17 20:36:05;;;;;;;8.88;2.50;;;;;;;23.79;42.75;102053.06;16119313;19;130577;-47
2023/07/17 20:41:27;;;;;;;15.73;2.17;;;;;;;23.76;43.01;102053.56;16117167;19;130312;-47
2023/07/17 20:46:49;;;;;;;10.40;2.30;;;;;;;23.73;43.09;102060.50;16120617;19;131611;-49
2023/07/17 20:52:11;;;;;;;16.27;2.13;;;;;;;23.73;42.81;102068.06;16119376;19;130300;-49
2023/07/17 20:57:34;;;;;;;10.20;2.15;;;;;;;23.69;43.52;102064.06;16118533;19;130295;-46
2023/07/17 21:02:56;;;;;;;13.23;2.28;;;;;;;23.63;43.27;102072.34;16118553;19;130834;-47
2023/07/17 21:08:20;;;;;;;7.90;1.88;;;;;;;23.60;43.25;102072.88;16105947;19;131614;-50
2023/07/17 21:13:42;;;;;;;10.47;1.90;;;;;;;23.56;43.18;102071.66;16114841;19;132094;-49
2023/07/17 21:19:05;;;;;;;7.45;1.77;;;;;;;23.52;43.43;102067.66;16107695;19;130300;-49
2023/07/17 21:24:28;;;;;;;10.75;1.75;;;;;;;23.50;43.01;102078.25;16112378;19;129842;-44
2023/07/17 21:29:50;;;;;;;8.40;1.90;;;;;;;23.47;43.17;102074.00;16112227;19;129877;-45
2023/07/17 21:35:12;;;;;;;6.15;2.00;;;;;;;23.45;43.21;102072.56;16110811;19;135042;-50
2023/07/17 21:40:34;;;;;;;7.63;1.70;;;;;;;23.43;43.50;102074.75;16110273;19;129535;-49
2023/07/17 21:45:56;;;;;;;5.63;1.63;;;;;;;23.41;43.00;102074.16;16108571;19;129661;-45
2023/07/17 21:51:19;;;;;;;5.95;1.52;;;;;;;23.39;43.25;102060.47;16111721;19;130924;-48
2023/07/17 21:56:42;;;;;;;8.45;2.15;;;;;;;23.37;43.23;102067.41;16112205;19;130647;-47
2023/07/17 22:02:04;;;;;;;5.28;1.73;;;;;;;23.35;43.30;102060.13;16105855;19;129528;-49
2023/07/17 22:07:26;;;;;;;5.95;1.77;;;;;;;23.35;43.17;102064.84;16112521;19;130036;-48
2023/07/17 22:12:48;;;;;;;3.42;1.33;;;;;;;23.33;43.06;102072.63;16111691;19;131241;-47
2023/07/17 22:18:10;;;;;;;6.05;1.50;;;;;;;23.32;43.08;102071.78;16111429;19;129257;-45
2023/07/17 22:23:50;;;;;;;8.15;1.50;;;;;;;23.30;43.05;102073.16;16114075;19;129218;-45
2023/07/17 22:29:12;;;;;;;4.57;1.30;;;;;;;23.28;43.08;102080.91;16110702;19;130727;-44
2023/07/17 22:34:34;;;;;;;8.40;1.58;;;;;;;23.27;42.94;102084.81;16105720;19;130987;-46
2023/07/17 22:39:56;;;;;;;3.47;1.40;;;;;;;23.25;43.16;102070.25;16106540;19;129702;-49
2023/07/17 22:45:18;;;;;;;5.05;1.63;;;;;;;23.24;43.38;102083.38;16108600;19;130983;-45
2023/07/17 22:50:40;;;;;;;4.20;1.70;;;;;;;23.23;42.96;102084.47;16105403;19;130183;-48
2023/07/17 22:56:02;;;;;;;4.70;1.38;;;;;;;23.21;43.07;102092.25;16107900;19;129459;-46
2023/07/17 23:01:23;;;;;;;3.80;1.20;;;;;;;23.19;43.13;102088.84;16105510;19;129659;-44
2023/07/17 23:06:45;;;;;;;4.40;1.25;;;;;;;23.19;43.26;102086.06;16104908;19;131246;-45
2023/07/17 23:12:08;;;;;;;5.57;1.33;;;;;;;23.17;42.99;102091.91;16106528;19;131105;-48
2023/07/17 23:17:30;;;;;;;3.97;1.50;;;;;;;23.16;42.69;102090.19;16104733;19;130318;-46
2023/07/17 23:22:52;;;;;;;5.13;1.30;;;;;;;23.15;42.84;102076.47;16102018;19;130561;-45
2023/07/17 23:28:14;;;;;;;2.42;1.33;;;;;;;23.14;42.98;102083.19;16103751;19;131128;-46
2023/07/17 23:33:36;;;;;;;3.42;1.52;;;;;;;23.13;43.35;102084.28;16107424;19;131077;-47
2023/07/17 23:38:58;;;;;;;3.05;1.10;;;;;;;23.11;43.09;102080.88;16103397;19;131622;-50
2023/07/17 23:44:20;;;;;;;2.55;1.10;;;;;;;23.09;42.97;102071.91;16104374;19;131588;-49
2023/07/17 23:49:42;;;;;;;2.45;1.13;;;;;;;23.09;42.59;102083.06;16122880;19;130442;-46
2023/07/17 23:55:04;;;;;;;3.80;1.40;;;;;;;23.07;42.99;102074.09;16121052;19;129831;-45
